createdAt,value
2023-04-05T00:01:27.713Z,12.77
2023-04-05T00:04:01.125Z,12.83
2023-04-05T00:06:31.850Z,12.43
2023-04-05T00:09:01.866Z,12.60
2023-04-05T00:11:32.041Z,11.77
2023-04-05T00:14:02.202Z,11.87
2023-04-05T00:16:32.319Z,12.90
2023-04-05T00:19:02.366Z,11.43
2023-04-05T00:21:30.897Z,13.53
2023-04-05T00:23:59.895Z,15.07
2023-04-05T00:26:28.898Z,13.67
2023-04-05T00:28:57.422Z,13.03
2023-04-05T00:31:26.120Z,12.20
2023-04-05T00:33:56.318Z,10.63
2023-04-05T00:36:25.409Z,10.97
2023-04-05T00:38:53.940Z,10.87
2023-04-05T00:41:22.738Z,10.60
2023-04-05T00:43:51.367Z,11.30
2023-04-05T00:46:20.115Z,11.73
2023-04-05T00:48:49.490Z,11.17
2023-04-05T00:51:20.565Z,13.77
2023-04-05T00:53:53.107Z,12.43
2023-04-05T00:56:23.270Z,12.83
2023-04-05T00:58:53.583Z,11.20
2023-04-05T01:01:24.170Z,11.37
2023-04-05T01:04:00.171Z,11.40
2023-04-05T01:06:43.925Z,10.27
2023-04-05T01:09:24.669Z,9.73
2023-04-05T01:11:57.000Z,9.83
2023-04-05T01:14:25.707Z,8.57
2023-04-05T01:16:58.420Z,8.13
2023-04-05T01:19:30.352Z,7.70
2023-04-05T01:22:22.713Z,8.33
2023-04-05T01:25:03.040Z,8.50
2023-04-05T01:27:50.465Z,8.63
2023-04-05T01:30:24.224Z,8.23
2023-04-05T01:33:02.898Z,8.63
2023-04-05T01:35:39.063Z,8.17
2023-04-05T01:38:11.159Z,8.03
2023-04-05T01:40:40.053Z,8.07
2023-04-05T01:43:15.719Z,8.33
2023-04-05T01:45:47.250Z,8.33
2023-04-05T01:48:16.340Z,7.80
2023-04-05T01:50:45.014Z,8.73
2023-04-05T01:53:13.568Z,8.63
2023-04-05T01:55:42.089Z,8.80
2023-04-05T01:58:10.828Z,8.70
2023-04-05T02:00:39.556Z,8.27
2023-04-05T02:03:10.137Z,8.93
2023-04-05T02:05:38.668Z,8.27
2023-04-05T02:08:07.166Z,8.17
2023-04-05T02:10:35.786Z,8.70
2023-04-05T02:13:04.260Z,8.23
2023-04-05T02:15:34.354Z,8.93
2023-04-05T02:18:04.061Z,8.80
2023-04-05T02:20:34.849Z,8.47
2023-04-05T02:23:03.513Z,9.47
2023-04-05T02:25:32.003Z,8.67
2023-04-05T02:28:00.540Z,8.37
2023-04-05T02:30:29.300Z,8.73
2023-04-05T02:32:58.216Z,8.60
2023-04-05T02:35:26.898Z,8.87
2023-04-05T02:37:57.317Z,8.40
2023-04-05T02:40:25.993Z,9.13
2023-04-05T02:42:54.605Z,9.10
2023-04-05T02:45:28.110Z,8.30
2023-04-05T02:47:56.820Z,9.60
2023-04-05T02:50:25.756Z,10.50
2023-04-05T02:52:54.336Z,10.60
2023-04-05T02:55:25.085Z,9.97
2023-04-05T02:57:53.566Z,9.40
2023-04-05T03:00:22.699Z,8.87
2023-04-05T03:02:51.416Z,9.73
2023-04-05T03:05:20.989Z,9.27
2023-04-05T03:07:51.046Z,9.97
2023-04-05T03:10:22.590Z,8.40
2023-04-05T03:12:52.892Z,8.73
2023-04-05T03:15:21.611Z,9.97
2023-04-05T03:17:50.128Z,10.43
2023-04-05T03:20:18.744Z,9.63
2023-04-05T03:22:47.264Z,10.60
2023-04-05T03:25:19.241Z,9.83
2023-04-05T03:27:47.705Z,9.00
2023-04-05T03:30:17.840Z,10.60
2023-04-05T03:32:46.390Z,9.87
2023-04-05T03:35:17.182Z,11.07
2023-04-05T03:37:45.770Z,11.23
2023-04-05T03:40:15.493Z,11.37
2023-04-05T03:42:44.609Z,10.87
2023-04-05T03:45:13.340Z,10.37
2023-04-05T03:47:43.630Z,10.27
2023-04-05T03:50:12.468Z,8.83
2023-04-05T03:52:40.933Z,9.10
2023-04-05T03:55:10.138Z,10.13
2023-04-05T03:57:39.604Z,9.60
2023-04-05T04:00:14.624Z,9.70
2023-04-05T04:02:48.020Z,9.23
2023-04-05T04:05:18.249Z,10.17
2023-04-05T04:07:47.505Z,9.43
2023-04-05T04:10:18.754Z,9.47
2023-04-05T04:12:47.342Z,10.23
2023-04-05T04:15:16.089Z,9.27
2023-04-05T04:17:46.211Z,9.80
2023-04-05T04:20:15.571Z,9.47
2023-04-05T04:22:44.047Z,10.03
2023-04-05T04:25:15.118Z,10.00
2023-04-05T04:27:46.910Z,10.17
2023-04-05T04:30:16.897Z,10.00
2023-04-05T04:32:52.338Z,10.37
2023-04-05T04:35:25.306Z,9.87
2023-04-05T04:37:58.061Z,12.53
2023-04-05T04:40:29.602Z,12.40
2023-04-05T04:43:00.525Z,12.73
2023-04-05T04:45:29.297Z,11.30
2023-04-05T04:48:00.224Z,12.00
2023-04-05T04:50:29.214Z,11.40
2023-04-05T04:52:57.818Z,12.00
2023-04-05T04:55:27.748Z,12.37
2023-04-05T04:57:57.022Z,11.93
2023-04-05T05:00:26.294Z,12.20
2023-04-05T05:02:54.909Z,11.23
2023-04-05T05:05:24.818Z,11.10
2023-04-05T05:07:53.968Z,9.70
2023-04-05T05:10:22.720Z,11.60
2023-04-05T05:12:51.960Z,11.37
2023-04-05T05:15:21.068Z,10.53
2023-04-05T05:17:53.995Z,10.60
2023-04-05T05:20:22.837Z,11.03
2023-04-05T05:22:52.824Z,10.70
2023-04-05T05:25:21.875Z,10.07
2023-04-05T05:27:51.262Z,10.37
2023-04-05T05:30:20.963Z,10.30
2023-04-05T05:32:49.520Z,10.90
2023-04-05T05:35:18.172Z,11.23
2023-04-05T05:37:46.685Z,11.43
2023-04-05T05:40:16.920Z,11.30
2023-04-05T05:42:45.334Z,11.33
2023-04-05T05:45:14.027Z,11.17
2023-04-05T05:47:43.042Z,10.27
2023-04-05T05:50:15.543Z,10.60
2023-04-05T05:52:43.981Z,10.17
2023-04-05T05:55:12.413Z,11.10
2023-04-05T05:57:42.426Z,11.30
2023-04-05T06:00:11.975Z,10.83
2023-04-05T06:02:40.825Z,11.43
2023-04-05T06:05:09.814Z,11.00
2023-04-05T06:07:39.140Z,11.60
2023-04-05T06:10:08.611Z,12.13
2023-04-05T06:12:37.216Z,11.00
2023-04-05T06:15:08.367Z,10.40
2023-04-05T06:17:42.143Z,11.47
2023-04-05T06:20:11.932Z,10.23
2023-04-05T06:22:42.020Z,11.60
2023-04-05T06:25:13.182Z,11.27
2023-04-05T06:27:44.865Z,10.50
2023-04-05T06:30:16.153Z,10.83
2023-04-05T06:32:44.829Z,10.30
2023-04-05T06:35:14.680Z,10.40
2023-04-05T06:37:43.551Z,10.57
2023-04-05T06:40:12.591Z,10.60
2023-04-05T06:42:41.286Z,10.67
2023-04-05T06:45:10.951Z,11.40
2023-04-05T06:47:43.080Z,10.70
2023-04-05T06:50:12.243Z,10.47
2023-04-05T06:52:41.342Z,10.87
2023-04-05T06:55:10.566Z,11.10
2023-04-05T06:57:39.466Z,10.30
2023-04-05T07:00:11.928Z,9.73
2023-04-05T07:02:42.015Z,10.30
2023-04-05T07:05:10.924Z,10.27
2023-04-05T07:07:42.705Z,9.47
2023-04-05T07:10:12.608Z,10.60
2023-04-05T07:12:41.651Z,10.70
2023-04-05T07:15:12.412Z,10.70
2023-04-05T07:17:43.499Z,10.50
2023-04-05T07:20:14.453Z,9.67
2023-04-05T07:22:42.861Z,8.80
2023-04-05T07:25:12.076Z,10.40
2023-04-05T07:27:41.018Z,10.17
2023-04-05T07:30:14.869Z,9.87
2023-04-05T07:32:45.105Z,10.23
2023-04-05T07:35:14.055Z,9.33
2023-04-05T07:37:42.941Z,10.53
2023-04-05T07:40:13.172Z,9.30
2023-04-05T07:42:42.216Z,10.67
2023-04-05T07:45:11.791Z,11.60
2023-04-05T07:47:40.359Z,10.47
2023-04-05T07:50:12.436Z,10.17
2023-04-05T07:52:43.282Z,10.77
2023-04-05T07:55:12.501Z,10.83
2023-04-05T07:57:41.281Z,10.30
2023-04-05T08:00:13.707Z,9.17
2023-04-05T08:02:42.837Z,8.67
2023-04-05T08:05:13.034Z,12.87
2023-04-05T08:07:41.845Z,8.93
2023-04-05T08:10:11.184Z,8.30
2023-04-05T08:12:39.752Z,7.90
2023-04-05T08:15:09.093Z,6.97
2023-04-05T08:17:37.682Z,6.63
2023-04-05T08:20:07.702Z,7.13
2023-04-05T08:22:37.675Z,6.20
2023-04-05T08:25:06.805Z,5.00
2023-04-05T08:27:35.368Z,4.27
2023-04-05T08:30:04.288Z,4.63
2023-04-05T08:32:33.315Z,4.10
2023-04-05T08:35:02.048Z,4.93
2023-04-05T08:37:30.637Z,3.87
2023-04-05T08:40:00.888Z,5.47
2023-04-05T08:42:33.388Z,4.73
2023-04-05T08:45:04.963Z,4.67
2023-04-05T08:47:35.682Z,4.77
2023-04-05T08:50:05.704Z,5.70
2023-04-05T08:52:38.192Z,5.70
2023-04-05T08:55:09.027Z,6.33
2023-04-05T08:57:41.014Z,6.73
2023-04-05T09:00:14.366Z,6.57
2023-04-05T09:02:47.039Z,6.27
2023-04-05T09:05:17.971Z,5.67
2023-04-05T09:07:48.204Z,6.20
2023-04-05T09:10:20.898Z,5.50
2023-04-05T09:12:50.807Z,5.83
2023-04-05T09:15:24.538Z,6.10
2023-04-05T09:17:53.745Z,6.17
2023-04-05T09:20:22.416Z,5.77
2023-04-05T09:22:51.028Z,5.83
2023-04-05T09:25:40.035Z,4.07
2023-04-05T09:28:09.178Z,5.20
2023-04-05T09:30:38.394Z,4.77
2023-04-05T09:33:11.318Z,4.67
2023-04-05T09:35:39.826Z,3.67
2023-04-05T09:38:08.378Z,3.50
2023-04-05T09:40:45.692Z,3.77
2023-04-05T09:43:15.097Z,3.03
2023-04-05T09:45:46.298Z,3.60
2023-04-05T09:48:14.969Z,4.13
2023-04-05T09:50:43.888Z,3.63
2023-04-05T09:53:17.064Z,4.40
2023-04-05T09:55:47.098Z,4.17
2023-04-05T09:58:20.316Z,4.30
2023-04-05T10:01:00.004Z,3.73
2023-04-05T10:03:48.531Z,3.77
2023-04-05T10:06:18.198Z,4.40
2023-04-05T10:08:48.459Z,3.13
2023-04-05T10:11:20.099Z,3.83
2023-04-05T10:13:51.350Z,3.87
2023-04-05T10:16:23.110Z,3.50
2023-04-05T10:18:54.822Z,3.80
2023-04-05T10:21:25.403Z,3.27
2023-04-05T10:24:12.379Z,4.37
2023-04-05T10:26:54.372Z,4.20
2023-04-05T10:29:32.368Z,4.30
2023-04-05T10:32:09.215Z,16.80
2023-04-05T10:34:44.663Z,6.37
2023-04-05T10:37:24.898Z,4.70
2023-04-05T10:39:54.368Z,3.60
2023-04-05T10:42:28.685Z,3.70
2023-04-05T10:45:04.982Z,7.00
2023-04-05T10:47:38.431Z,8.63
2023-04-05T10:50:14.038Z,4.70
2023-04-05T10:52:43.934Z,5.03
2023-04-05T10:55:13.377Z,7.27
2023-04-05T10:57:44.280Z,3.90
2023-04-05T11:00:14.955Z,3.60
2023-04-05T11:02:44.146Z,7.23
2023-04-05T11:05:31.975Z,4.53
2023-04-05T11:08:04.194Z,4.70
2023-04-05T11:10:33.622Z,5.83
2023-04-05T11:13:08.966Z,4.67
2023-04-05T11:15:38.199Z,4.20
2023-04-05T11:18:09.006Z,4.63
2023-04-05T11:20:45.590Z,4.43
2023-04-05T11:23:16.144Z,4.80
2023-04-05T11:25:51.570Z,4.50
2023-04-05T11:28:27.756Z,4.43
2023-04-05T11:30:59.232Z,4.43
2023-04-05T11:34:10.283Z,4.20
2023-04-05T11:36:42.333Z,4.27
2023-04-05T11:39:29.887Z,3.80
2023-04-05T11:42:02.727Z,4.63
2023-04-05T11:44:42.563Z,4.10
2023-04-05T11:47:11.898Z,4.40
2023-04-05T11:49:42.584Z,4.33
2023-04-05T11:52:17.125Z,4.73
2023-04-05T11:54:47.873Z,4.33
2023-04-05T11:57:19.980Z,4.80
2023-04-05T11:59:51.908Z,4.50
2023-04-05T12:02:21.408Z,3.90
2023-04-05T12:04:57.759Z,4.20
2023-04-05T12:07:29.303Z,4.27
2023-04-05T12:10:16.346Z,3.90
2023-04-05T12:12:48.308Z,4.47
2023-04-05T12:15:19.796Z,4.70
2023-04-05T12:17:50.275Z,4.43
2023-04-05T12:20:21.171Z,4.90
2023-04-05T12:22:51.469Z,4.83
2023-04-05T12:25:21.252Z,4.30
2023-04-05T12:27:49.973Z,4.93
2023-04-05T12:30:21.391Z,4.47
2023-04-05T12:32:53.014Z,4.27
2023-04-05T12:35:24.763Z,5.27
2023-04-05T12:37:53.862Z,4.63
2023-04-05T12:40:24.819Z,5.13
2023-04-05T12:42:53.991Z,4.13
2023-04-05T12:45:25.356Z,4.43
2023-04-05T12:47:55.187Z,4.70
2023-04-05T12:50:31.756Z,5.23
2023-04-05T12:53:02.086Z,5.17
2023-04-05T12:55:32.183Z,4.40
2023-04-05T12:58:02.001Z,3.77
2023-04-05T13:00:33.039Z,3.63
2023-04-05T13:03:01.641Z,4.07
2023-04-05T13:05:33.609Z,3.00
2023-04-05T13:08:02.296Z,2.77
2023-04-05T13:10:31.190Z,23.60
2023-04-05T13:13:00.102Z,8.53
2023-04-05T13:15:28.782Z,3.50
2023-04-05T13:17:58.854Z,5.93
2023-04-05T13:20:27.495Z,4.73
2023-04-05T13:22:56.174Z,4.40
2023-04-05T13:25:24.873Z,4.70
2023-04-05T13:27:56.635Z,5.90
2023-04-05T13:30:25.237Z,3.87
2023-04-05T13:32:54.051Z,5.50
2023-04-05T13:35:24.155Z,5.90
2023-04-05T13:37:52.728Z,5.80
2023-04-05T13:40:21.320Z,4.57
2023-04-05T13:42:50.113Z,6.47
2023-04-05T13:45:18.812Z,8.47
2023-04-05T13:47:47.311Z,7.20
2023-04-05T13:50:16.176Z,6.93
2023-04-05T13:52:46.752Z,10.03
2023-04-05T13:55:15.528Z,6.13
2023-04-05T13:57:44.101Z,5.87
2023-04-05T14:00:14.066Z,6.40
2023-04-05T14:03:18.734Z,4.73
2023-04-05T14:06:02.353Z,5.10
2023-04-05T14:08:55.426Z,4.47
2023-04-05T14:11:29.422Z,4.63
2023-04-05T14:13:58.323Z,4.33
2023-04-05T14:16:27.049Z,4.37
2023-04-05T14:18:55.907Z,7.97
2023-04-05T14:21:26.134Z,6.30
2023-04-05T14:23:57.362Z,5.40
2023-04-05T14:26:27.192Z,5.67
2023-04-05T14:28:55.991Z,5.60
2023-04-05T14:31:26.654Z,5.20
2023-04-05T14:33:55.433Z,4.37
2023-04-05T14:36:24.440Z,4.60
2023-04-05T14:38:53.300Z,5.20
2023-04-05T14:41:23.259Z,5.50
2023-04-05T14:43:51.800Z,5.30
2023-04-05T14:46:20.459Z,5.13
2023-04-05T14:48:49.300Z,5.00
2023-04-05T14:51:18.315Z,5.27
2023-04-05T14:53:46.880Z,3.77
2023-04-05T14:56:15.782Z,7.50
2023-04-05T14:58:46.200Z,3.90
2023-04-05T15:01:15.145Z,3.27
2023-04-05T15:03:45.006Z,3.47
2023-04-05T15:06:13.845Z,2.80
2023-04-05T15:08:42.422Z,3.13
2023-04-05T15:11:11.664Z,3.27
2023-04-05T15:13:41.061Z,3.30
2023-04-05T15:16:11.925Z,3.60
2023-04-05T15:18:41.208Z,3.40
2023-04-05T15:21:11.550Z,3.20
2023-04-05T15:23:40.385Z,3.57
2023-04-05T15:26:08.892Z,3.33
2023-04-05T15:28:37.459Z,2.97
2023-04-05T15:31:06.498Z,4.63
2023-04-05T15:33:36.802Z,4.60
2023-04-05T15:36:09.213Z,3.10
2023-04-05T15:38:37.858Z,2.90
2023-04-05T15:41:06.585Z,2.93
2023-04-05T15:43:35.251Z,2.87
2023-04-05T15:46:05.140Z,7.90
2023-04-05T15:48:33.742Z,4.77
2023-04-05T15:52:03.358Z,7.70
2023-04-05T15:54:33.456Z,3.13
2023-04-05T15:57:02.156Z,2.90
2023-04-05T15:59:30.844Z,6.40
2023-04-05T16:01:59.545Z,5.63
2023-04-05T16:04:29.029Z,5.90
2023-04-05T16:06:58.343Z,5.13
2023-04-05T16:09:27.803Z,6.00
2023-04-05T16:11:59.415Z,3.50
2023-04-05T16:14:28.201Z,4.53
2023-04-05T16:16:56.992Z,4.07
2023-04-05T16:19:25.603Z,4.50
2023-04-05T16:21:54.703Z,4.63
2023-04-05T16:24:23.478Z,4.33
2023-04-05T16:26:52.655Z,4.00
2023-04-05T16:29:22.690Z,4.30
2023-04-05T16:31:51.421Z,3.77
2023-04-05T16:34:20.083Z,3.47
2023-04-05T16:36:48.852Z,4.37
2023-04-05T16:39:17.363Z,6.90
2023-04-05T16:41:45.951Z,5.30
2023-04-05T16:44:14.446Z,5.37
2023-04-05T16:46:46.313Z,5.73
2023-04-05T16:49:16.075Z,4.60
2023-04-05T16:51:44.582Z,4.10
2023-04-05T16:54:13.207Z,4.23
2023-04-05T16:56:41.795Z,4.17
2023-04-05T16:59:10.498Z,4.00
2023-04-05T17:01:39.651Z,5.80
2023-04-05T17:04:09.680Z,4.60
2023-04-05T17:06:38.422Z,5.10
2023-04-05T17:09:07.059Z,5.90
2023-04-05T17:11:35.775Z,7.17
2023-04-05T17:14:05.967Z,6.20
2023-04-05T17:16:34.610Z,11.10
2023-04-05T17:19:03.313Z,14.03
2023-04-05T17:21:36.088Z,19.87
2023-04-05T17:24:08.151Z,9.60
2023-04-05T17:26:36.796Z,4.60
2023-04-05T17:29:06.346Z,4.33
2023-04-05T17:31:35.686Z,4.80
2023-04-05T17:34:04.474Z,8.50
2023-04-05T17:36:35.479Z,21.27
2023-04-05T17:39:04.329Z,49.43
2023-04-05T17:41:33.090Z,121.77
2023-04-05T17:44:01.836Z,134.63
2023-04-05T17:46:42.787Z,44.03
2023-04-05T17:49:13.281Z,45.83
2023-04-05T17:51:43.253Z,185.80
2023-04-05T17:54:13.072Z,36.80
2023-04-05T17:56:41.773Z,24.77
2023-04-05T17:59:10.502Z,20.13
2023-04-05T18:01:39.951Z,16.73
2023-04-05T18:04:11.031Z,14.57
2023-04-05T18:06:42.659Z,27.17
2023-04-05T18:09:11.612Z,21.30
2023-04-05T18:11:40.155Z,23.00
2023-04-05T18:14:08.748Z,27.40
2023-04-05T18:16:37.490Z,29.37
2023-04-05T18:19:06.555Z,27.07
2023-04-05T18:21:37.353Z,25.63
2023-04-05T18:24:08.331Z,20.77
2023-04-05T18:26:37.083Z,20.67
2023-04-05T18:29:05.815Z,17.80
2023-04-05T18:31:34.640Z,19.07
2023-04-05T18:34:06.774Z,20.20
2023-04-05T18:36:36.270Z,32.67
2023-04-05T18:39:05.070Z,38.53
2023-04-05T18:41:35.419Z,33.37
2023-04-05T18:44:04.056Z,31.27
2023-04-05T18:46:32.762Z,28.90
2023-04-05T18:49:02.043Z,29.73
2023-04-05T18:51:31.323Z,29.80
2023-04-05T18:53:59.967Z,27.37
2023-04-05T18:56:28.977Z,28.80
2023-04-05T18:58:59.154Z,33.20
2023-04-05T19:01:27.858Z,35.60
2023-04-05T19:03:56.906Z,36.57
2023-04-05T19:06:26.468Z,32.73
2023-04-05T19:08:55.040Z,25.83
2023-04-05T19:11:25.090Z,25.43
2023-04-05T19:13:53.873Z,29.57
2023-04-05T19:16:23.974Z,31.33
2023-04-05T19:18:53.108Z,27.67
2023-04-05T19:21:21.899Z,24.57
2023-04-05T19:23:50.888Z,26.83
2023-04-05T19:26:21.865Z,29.33
2023-04-05T19:28:51.341Z,24.93
2023-04-05T19:31:20.051Z,25.43
2023-04-05T19:33:50.837Z,24.63
2023-04-05T19:36:19.523Z,52.60
2023-04-05T19:38:48.261Z,37.27
2023-04-05T19:41:16.961Z,29.40
2023-04-05T19:43:45.540Z,27.93
2023-04-05T19:46:19.251Z,27.57
2023-04-05T19:48:48.345Z,25.43
2023-04-05T19:51:20.613Z,20.70
2023-04-05T19:53:49.849Z,20.37
2023-04-05T19:56:21.279Z,18.23
2023-04-05T19:58:51.354Z,17.57
2023-04-05T20:01:34.142Z,23.37
2023-04-05T20:04:04.857Z,16.00
2023-04-05T20:06:35.611Z,18.63
2023-04-05T20:09:08.379Z,20.57
2023-04-05T20:11:37.143Z,20.00
2023-04-05T20:14:07.328Z,19.87
2023-04-05T20:16:37.116Z,15.03
2023-04-05T20:19:08.017Z,11.13
2023-04-05T20:21:38.742Z,10.03
2023-04-05T20:24:10.234Z,10.57
2023-04-05T20:26:40.971Z,10.23
2023-04-05T20:29:12.244Z,10.17
2023-04-05T20:31:41.405Z,11.13
2023-04-05T20:34:11.765Z,12.77
2023-04-05T20:36:48.458Z,15.23
2023-04-05T20:39:17.526Z,14.60
2023-04-05T20:41:46.866Z,14.50
2023-04-05T20:44:15.319Z,21.77
2023-04-05T20:46:43.944Z,22.10
2023-04-05T20:49:12.919Z,54.23
2023-04-05T20:51:43.317Z,48.47
2023-04-05T20:54:11.915Z,39.37
2023-04-05T20:56:41.263Z,106.10
2023-04-05T20:59:10.168Z,25.50
2023-04-05T21:01:39.209Z,18.30
2023-04-05T21:04:10.842Z,16.87
2023-04-05T21:06:40.027Z,16.77
2023-04-05T21:09:10.577Z,15.60
2023-04-05T21:11:39.723Z,14.97
2023-04-05T21:14:08.736Z,14.33
2023-04-05T21:16:37.386Z,13.93
2023-04-05T21:19:06.132Z,16.33
2023-04-05T21:21:34.974Z,37.33
2023-04-05T21:24:06.297Z,23.57
2023-04-05T21:26:36.249Z,198.77
2023-04-05T21:29:04.724Z,80.73
2023-04-05T21:31:33.241Z,142.63
2023-04-05T21:34:01.775Z,81.37
2023-04-05T21:36:30.264Z,45.47
2023-04-05T21:38:58.737Z,31.53
2023-04-05T21:41:27.536Z,33.00
2023-04-05T21:43:57.832Z,40.87
2023-04-05T21:46:26.390Z,164.33
2023-04-05T21:48:54.832Z,162.00
2023-04-05T21:51:23.517Z,91.47
2023-04-05T21:53:52.036Z,51.43
2023-04-05T21:56:20.892Z,141.53
2023-04-05T21:58:49.367Z,147.10
2023-04-05T22:01:19.427Z,118.17
2023-04-05T22:03:48.341Z,50.33
2023-04-05T22:06:16.859Z,35.93
2023-04-05T22:08:45.523Z,160.27
2023-04-05T22:11:14.081Z,234.23
2023-04-05T22:13:42.515Z,333.73
2023-04-05T22:16:10.940Z,80.13
2023-04-05T22:18:40.902Z,59.30
2023-04-05T22:21:09.467Z,56.63
2023-04-05T22:23:37.954Z,48.80
2023-04-05T22:26:06.395Z,50.83
2023-04-05T22:28:34.917Z,46.83
2023-04-05T22:31:03.769Z,93.83
2023-04-05T22:33:32.184Z,59.00
2023-04-05T22:36:03.508Z,51.70
2023-04-05T22:38:32.254Z,53.87
2023-04-05T22:41:00.843Z,60.50
2023-04-05T22:43:29.377Z,59.50
2023-04-05T22:45:57.940Z,61.70
2023-04-05T22:48:26.424Z,64.03
2023-04-05T22:50:54.926Z,58.17
2023-04-05T22:53:25.007Z,57.53
2023-04-05T22:55:53.445Z,57.53
2023-04-05T22:58:22.792Z,58.40
2023-04-05T23:00:53.950Z,66.37
2023-04-05T23:03:22.429Z,62.73
2023-04-05T23:05:52.403Z,64.07
2023-04-05T23:08:20.987Z,69.30
2023-04-05T23:10:51.013Z,60.83
2023-04-05T23:13:19.542Z,54.60
2023-04-05T23:15:48.047Z,53.70
2023-04-05T23:18:22.194Z,52.30
2023-04-05T23:20:50.708Z,48.73
2023-04-05T23:23:19.124Z,55.73
2023-04-05T23:25:47.681Z,67.07
2023-04-05T23:28:17.577Z,49.03
2023-04-05T23:30:46.088Z,47.20
2023-04-05T23:33:14.596Z,42.77
2023-04-05T23:35:44.236Z,50.60
2023-04-05T23:38:12.733Z,46.23
2023-04-05T23:40:41.177Z,45.93
2023-04-05T23:43:09.580Z,42.83
2023-04-05T23:45:39.548Z,44.40
2023-04-05T23:48:08.510Z,41.23
2023-04-05T23:50:37.092Z,38.03
2023-04-05T23:53:05.576Z,39.50
2023-04-05T23:55:35.816Z,38.93
2023-04-05T23:58:04.295Z,37.13
